sensor_id;sensor_type;location;lat;lon;timestamp;P1;durP1;ratioP1;P2;durP2;ratioP2
10293;SDS011;5192;50.328;7.610;2022-12-13T00:01:21;43.57;;;23.13;;
10293;SDS011;5192;50.328;7.610;2022-12-13T00:03:53;45.63;;;22.03;;
10293;SDS011;5192;50.328;7.610;2022-12-13T00:06:22;39.57;;;20.50;;
10293;SDS011;5192;50.328;7.610;2022-12-13T00:08:50;40.63;;;21.17;;
10293;SDS011;5192;50.328;7.610;2022-12-13T00:11:15;40.37;;;21.57;;
10293;SDS011;5192;50.328;7.610;2022-12-13T00:13:41;41.90;;;21.33;;
10293;SDS011;5192;50.328;7.610;2022-12-13T00:16:14;44.43;;;23.23;;
10293;SDS011;5192;50.328;7.610;2022-12-13T00:18:52;45.80;;;23.13;;
10293;SDS011;5192;50.328;7.610;2022-12-13T00:21:24;46.47;;;22.20;;
10293;SDS011;5192;50.328;7.610;2022-12-13T00:23:56;47.67;;;23.40;;
10293;SDS011;5192;50.328;7.610;2022-12-13T00:26:29;43.33;;;22.50;;
10293;SDS011;5192;50.328;7.610;2022-12-13T00:29:00;43.73;;;22.07;;
10293;SDS011;5192;50.328;7.610;2022-12-13T00:31:28;43.37;;;21.67;;
10293;SDS011;5192;50.328;7.610;2022-12-13T00:33:58;44.90;;;22.23;;
10293;SDS011;5192;50.328;7.610;2022-12-13T00:36:25;49.27;;;23.93;;
10293;SDS011;5192;50.328;7.610;2022-12-13T00:38:52;45.63;;;23.17;;
10293;SDS011;5192;50.328;7.610;2022-12-13T00:41:35;47.20;;;23.60;;
10293;SDS011;5192;50.328;7.610;2022-12-13T00:44:03;51.87;;;24.37;;
10293;SDS011;5192;50.328;7.610;2022-12-13T00:46:50;49.97;;;23.33;;
10293;SDS011;5192;50.328;7.610;2022-12-13T00:49:19;45.10;;;23.63;;
10293;SDS011;5192;50.328;7.610;2022-12-13T00:51:47;49.13;;;24.17;;
10293;SDS011;5192;50.328;7.610;2022-12-13T00:54:15;45.67;;;23.07;;
10293;SDS011;5192;50.328;7.610;2022-12-13T00:56:41;46.93;;;22.57;;
10293;SDS011;5192;50.328;7.610;2022-12-13T00:59:11;43.97;;;21.73;;
10293;SDS011;5192;50.328;7.610;2022-12-13T01:01:41;41.03;;;21.40;;
10293;SDS011;5192;50.328;7.610;2022-12-13T01:04:11;43.57;;;21.70;;
10293;SDS011;5192;50.328;7.610;2022-12-13T01:09:23;42.43;;;21.50;;
10293;SDS011;5192;50.328;7.610;2022-12-13T01:12:02;44.37;;;22.07;;
10293;SDS011;5192;50.328;7.610;2022-12-13T01:14:33;38.83;;;19.97;;
10293;SDS011;5192;50.328;7.610;2022-12-13T01:17:00;41.23;;;20.47;;
10293;SDS011;5192;50.328;7.610;2022-12-13T01:19:27;41.23;;;22.27;;
10293;SDS011;5192;50.328;7.610;2022-12-13T01:22:00;37.60;;;19.97;;
10293;SDS011;5192;50.328;7.610;2022-12-13T01:24:28;42.53;;;20.50;;
10293;SDS011;5192;50.328;7.610;2022-12-13T01:26:54;47.47;;;22.27;;
10293;SDS011;5192;50.328;7.610;2022-12-13T01:29:23;45.40;;;21.97;;
10293;SDS011;5192;50.328;7.610;2022-12-13T01:31:50;42.10;;;21.17;;
10293;SDS011;5192;50.328;7.610;2022-12-13T01:34:19;39.97;;;20.43;;
10293;SDS011;5192;50.328;7.610;2022-12-13T01:36:46;45.90;;;22.03;;
10293;SDS011;5192;50.328;7.610;2022-12-13T01:39:16;49.07;;;21.17;;
10293;SDS011;5192;50.328;7.610;2022-12-13T01:41:48;43.13;;;21.73;;
10293;SDS011;5192;50.328;7.610;2022-12-13T01:50:21;38.87;;;21.10;;
10293;SDS011;5192;50.328;7.610;2022-12-13T01:52:54;39.63;;;20.87;;
10293;SDS011;5192;50.328;7.610;2022-12-13T01:55:25;44.67;;;21.23;;
10293;SDS011;5192;50.328;7.610;2022-12-13T01:57:56;47.67;;;23.40;;
10293;SDS011;5192;50.328;7.610;2022-12-13T02:00:26;47.57;;;22.83;;
10293;SDS011;5192;50.328;7.610;2022-12-13T02:02:59;48.13;;;22.90;;
10293;SDS011;5192;50.328;7.610;2022-12-13T02:05:38;46.93;;;22.47;;
10293;SDS011;5192;50.328;7.610;2022-12-13T02:08:10;45.03;;;23.20;;
10293;SDS011;5192;50.328;7.610;2022-12-13T02:10:40;46.50;;;23.50;;
10293;SDS011;5192;50.328;7.610;2022-12-13T02:13:07;41.37;;;21.73;;
10293;SDS011;5192;50.328;7.610;2022-12-13T02:27:39;50.00;;;23.47;;
10293;SDS011;5192;50.328;7.610;2022-12-13T02:30:36;44.17;;;21.73;;
10293;SDS011;5192;50.328;7.610;2022-12-13T02:39:43;46.37;;;22.47;;
10293;SDS011;5192;50.328;7.610;2022-12-13T02:42:24;41.97;;;21.03;;
10293;SDS011;5192;50.328;7.610;2022-12-13T02:45:14;43.07;;;22.37;;
10293;SDS011;5192;50.328;7.610;2022-12-13T02:47:46;45.13;;;22.27;;
10293;SDS011;5192;50.328;7.610;2022-12-13T02:50:15;42.30;;;20.97;;
10293;SDS011;5192;50.328;7.610;2022-12-13T02:52:41;43.93;;;21.77;;
10293;SDS011;5192;50.328;7.610;2022-12-13T02:55:12;47.17;;;24.00;;
10293;SDS011;5192;50.328;7.610;2022-12-13T02:57:41;45.23;;;22.50;;
10293;SDS011;5192;50.328;7.610;2022-12-13T03:00:15;44.93;;;22.53;;
10293;SDS011;5192;50.328;7.610;2022-12-13T03:03:06;46.33;;;21.67;;
10293;SDS011;5192;50.328;7.610;2022-12-13T03:15:14;39.30;;;21.90;;
10293;SDS011;5192;50.328;7.610;2022-12-13T03:17:59;39.73;;;19.90;;
10293;SDS011;5192;50.328;7.610;2022-12-13T03:20:49;38.37;;;19.97;;
10293;SDS011;5192;50.328;7.610;2022-12-13T03:23:18;43.33;;;20.60;;
10293;SDS011;5192;50.328;7.610;2022-12-13T03:25:49;44.77;;;21.07;;
10293;SDS011;5192;50.328;7.610;2022-12-13T03:28:18;40.87;;;20.33;;
10293;SDS011;5192;50.328;7.610;2022-12-13T03:30:45;40.60;;;19.13;;
10293;SDS011;5192;50.328;7.610;2022-12-13T03:33:14;40.30;;;19.63;;
10293;SDS011;5192;50.328;7.610;2022-12-13T03:35:41;43.23;;;20.90;;
10293;SDS011;5192;50.328;7.610;2022-12-13T03:38:12;39.67;;;19.40;;
10293;SDS011;5192;50.328;7.610;2022-12-13T03:40:41;40.63;;;20.20;;
10293;SDS011;5192;50.328;7.610;2022-12-13T03:43:09;38.30;;;20.60;;
10293;SDS011;5192;50.328;7.610;2022-12-13T03:45:38;42.00;;;20.17;;
10293;SDS011;5192;50.328;7.610;2022-12-13T03:48:03;44.30;;;19.77;;
10293;SDS011;5192;50.328;7.610;2022-12-13T03:50:31;41.93;;;21.07;;
10293;SDS011;5192;50.328;7.610;2022-12-13T03:52:59;39.87;;;19.83;;
10293;SDS011;5192;50.328;7.610;2022-12-13T03:55:27;37.07;;;19.30;;
10293;SDS011;5192;50.328;7.610;2022-12-13T03:57:53;42.27;;;19.67;;
10293;SDS011;5192;50.328;7.610;2022-12-13T04:00:21;36.80;;;19.87;;
10293;SDS011;5192;50.328;7.610;2022-12-13T04:02:50;42.37;;;20.30;;
10293;SDS011;5192;50.328;7.610;2022-12-13T04:05:17;40.37;;;19.60;;
10293;SDS011;5192;50.328;7.610;2022-12-13T04:07:45;46.33;;;22.57;;
10293;SDS011;5192;50.328;7.610;2022-12-13T04:10:13;44.67;;;20.27;;
10293;SDS011;5192;50.328;7.610;2022-12-13T04:12:41;37.60;;;19.50;;
10293;SDS011;5192;50.328;7.610;2022-12-13T04:15:26;37.50;;;19.20;;
10293;SDS011;5192;50.328;7.610;2022-12-13T04:17:53;40.97;;;20.07;;
10293;SDS011;5192;50.328;7.610;2022-12-13T04:20:20;40.97;;;19.67;;
10293;SDS011;5192;50.328;7.610;2022-12-13T04:22:48;35.53;;;18.57;;
10293;SDS011;5192;50.328;7.610;2022-12-13T04:25:15;41.23;;;19.63;;
10293;SDS011;5192;50.328;7.610;2022-12-13T04:27:44;43.93;;;21.60;;
10293;SDS011;5192;50.328;7.610;2022-12-13T04:30:11;48.37;;;22.13;;
10293;SDS011;5192;50.328;7.610;2022-12-13T04:32:38;35.67;;;18.07;;
10293;SDS011;5192;50.328;7.610;2022-12-13T04:35:05;36.63;;;17.87;;
10293;SDS011;5192;50.328;7.610;2022-12-13T04:37:31;40.40;;;19.70;;
10293;SDS011;5192;50.328;7.610;2022-12-13T04:40:00;36.53;;;18.23;;
10293;SDS011;5192;50.328;7.610;2022-12-13T04:42:29;42.07;;;19.73;;
10293;SDS011;5192;50.328;7.610;2022-12-13T04:45:00;37.83;;;18.27;;
10293;SDS011;5192;50.328;7.610;2022-12-13T04:47:31;35.93;;;18.23;;
10293;SDS011;5192;50.328;7.610;2022-12-13T04:49:59;38.03;;;19.90;;
10293;SDS011;5192;50.328;7.610;2022-12-13T04:52:24;38.30;;;19.53;;
10293;SDS011;5192;50.328;7.610;2022-12-13T04:54:56;35.47;;;17.70;;
10293;SDS011;5192;50.328;7.610;2022-12-13T04:57:22;39.57;;;19.37;;
10293;SDS011;5192;50.328;7.610;2022-12-13T04:59:49;35.47;;;18.80;;
10293;SDS011;5192;50.328;7.610;2022-12-13T05:02:17;38.87;;;20.17;;
10293;SDS011;5192;50.328;7.610;2022-12-13T05:04:46;34.37;;;18.40;;
10293;SDS011;5192;50.328;7.610;2022-12-13T05:07:11;36.33;;;18.00;;
10293;SDS011;5192;50.328;7.610;2022-12-13T05:09:37;36.53;;;17.60;;
10293;SDS011;5192;50.328;7.610;2022-12-13T05:12:06;36.90;;;17.80;;
10293;SDS011;5192;50.328;7.610;2022-12-13T05:14:31;40.03;;;18.40;;
10293;SDS011;5192;50.328;7.610;2022-12-13T05:17:02;40.23;;;18.33;;
10293;SDS011;5192;50.328;7.610;2022-12-13T05:19:29;54.40;;;25.70;;
10293;SDS011;5192;50.328;7.610;2022-12-13T05:21:55;37.60;;;20.00;;
10293;SDS011;5192;50.328;7.610;2022-12-13T05:24:25;37.97;;;18.17;;
10293;SDS011;5192;50.328;7.610;2022-12-13T05:26:51;36.07;;;16.97;;
10293;SDS011;5192;50.328;7.610;2022-12-13T05:29:17;37.00;;;18.50;;
10293;SDS011;5192;50.328;7.610;2022-12-13T05:31:44;40.67;;;18.87;;
10293;SDS011;5192;50.328;7.610;2022-12-13T05:34:11;44.20;;;20.73;;
10293;SDS011;5192;50.328;7.610;2022-12-13T05:36:39;40.47;;;19.60;;
10293;SDS011;5192;50.328;7.610;2022-12-13T05:39:06;37.17;;;18.80;;
10293;SDS011;5192;50.328;7.610;2022-12-13T05:41:34;40.13;;;20.00;;
10293;SDS011;5192;50.328;7.610;2022-12-13T05:44:02;39.00;;;17.70;;
10293;SDS011;5192;50.328;7.610;2022-12-13T05:46:31;41.57;;;19.83;;
10293;SDS011;5192;50.328;7.610;2022-12-13T05:48:59;41.37;;;19.30;;
10293;SDS011;5192;50.328;7.610;2022-12-13T05:51:24;45.10;;;20.77;;
10293;SDS011;5192;50.328;7.610;2022-12-13T05:53:51;40.57;;;18.67;;
10293;SDS011;5192;50.328;7.610;2022-12-13T05:56:18;40.30;;;18.53;;
10293;SDS011;5192;50.328;7.610;2022-12-13T05:58:45;42.47;;;19.37;;
10293;SDS011;5192;50.328;7.610;2022-12-13T06:01:12;37.93;;;17.57;;
10293;SDS011;5192;50.328;7.610;2022-12-13T06:03:40;36.90;;;17.40;;
10293;SDS011;5192;50.328;7.610;2022-12-13T06:06:08;41.40;;;19.53;;
10293;SDS011;5192;50.328;7.610;2022-12-13T06:08:34;40.23;;;18.47;;
10293;SDS011;5192;50.328;7.610;2022-12-13T06:11:02;35.27;;;17.43;;
10293;SDS011;5192;50.328;7.610;2022-12-13T06:13:31;35.90;;;18.70;;
10293;SDS011;5192;50.328;7.610;2022-12-13T06:16:03;38.20;;;18.80;;
10293;SDS011;5192;50.328;7.610;2022-12-13T06:18:30;37.53;;;17.83;;
10293;SDS011;5192;50.328;7.610;2022-12-13T06:21:00;38.60;;;18.77;;
10293;SDS011;5192;50.328;7.610;2022-12-13T06:23:31;35.27;;;18.43;;
10293;SDS011;5192;50.328;7.610;2022-12-13T06:26:02;40.13;;;19.17;;
10293;SDS011;5192;50.328;7.610;2022-12-13T06:28:31;37.73;;;17.47;;
10293;SDS011;5192;50.328;7.610;2022-12-13T06:30:59;37.97;;;17.83;;
10293;SDS011;5192;50.328;7.610;2022-12-13T06:33:27;46.80;;;20.53;;
10293;SDS011;5192;50.328;7.610;2022-12-13T06:35:56;41.43;;;18.67;;
10293;SDS011;5192;50.328;7.610;2022-12-13T06:38:24;35.90;;;18.17;;
10293;SDS011;5192;50.328;7.610;2022-12-13T06:40:53;34.27;;;16.93;;
10293;SDS011;5192;50.328;7.610;2022-12-13T06:43:43;40.70;;;19.57;;
10293;SDS011;5192;50.328;7.610;2022-12-13T06:46:12;40.27;;;19.57;;
10293;SDS011;5192;50.328;7.610;2022-12-13T06:48:40;39.97;;;18.33;;
10293;SDS011;5192;50.328;7.610;2022-12-13T06:51:07;47.70;;;19.90;;
10293;SDS011;5192;50.328;7.610;2022-12-13T06:53:34;43.30;;;20.40;;
10293;SDS011;5192;50.328;7.610;2022-12-13T06:56:03;38.10;;;18.43;;
10293;SDS011;5192;50.328;7.610;2022-12-13T06:58:44;38.53;;;18.50;;
10293;SDS011;5192;50.328;7.610;2022-12-13T07:03:55;36.87;;;17.77;;
10293;SDS011;5192;50.328;7.610;2022-12-13T07:06:23;37.77;;;18.40;;
10293;SDS011;5192;50.328;7.610;2022-12-13T07:08:52;35.90;;;17.37;;
10293;SDS011;5192;50.328;7.610;2022-12-13T07:11:23;31.83;;;16.53;;
10293;SDS011;5192;50.328;7.610;2022-12-13T07:13:51;35.53;;;17.57;;
10293;SDS011;5192;50.328;7.610;2022-12-13T07:16:18;37.17;;;16.33;;
10293;SDS011;5192;50.328;7.610;2022-12-13T07:18:45;34.53;;;18.60;;
10293;SDS011;5192;50.328;7.610;2022-12-13T07:21:22;40.07;;;18.53;;
10293;SDS011;5192;50.328;7.610;2022-12-13T07:23:50;35.00;;;16.40;;
10293;SDS011;5192;50.328;7.610;2022-12-13T07:26:16;34.17;;;17.70;;
10293;SDS011;5192;50.328;7.610;2022-12-13T07:28:43;35.47;;;16.30;;
10293;SDS011;5192;50.328;7.610;2022-12-13T07:31:12;35.50;;;17.47;;
10293;SDS011;5192;50.328;7.610;2022-12-13T07:33:38;38.33;;;17.40;;
10293;SDS011;5192;50.328;7.610;2022-12-13T07:36:10;35.97;;;16.77;;
10293;SDS011;5192;50.328;7.610;2022-12-13T07:38:42;40.47;;;17.33;;
10293;SDS011;5192;50.328;7.610;2022-12-13T07:41:09;35.43;;;16.90;;
10293;SDS011;5192;50.328;7.610;2022-12-13T07:43:36;35.23;;;18.20;;
10293;SDS011;5192;50.328;7.610;2022-12-13T07:46:05;36.03;;;16.10;;
10293;SDS011;5192;50.328;7.610;2022-12-13T07:48:32;38.43;;;18.07;;
10293;SDS011;5192;50.328;7.610;2022-12-13T07:51:00;33.63;;;16.60;;
10293;SDS011;5192;50.328;7.610;2022-12-13T07:53:29;35.90;;;17.17;;
10293;SDS011;5192;50.328;7.610;2022-12-13T07:56:01;34.17;;;17.00;;
10293;SDS011;5192;50.328;7.610;2022-12-13T07:58:30;32.33;;;15.40;;
10293;SDS011;5192;50.328;7.610;2022-12-13T08:01:02;31.07;;;16.47;;
10293;SDS011;5192;50.328;7.610;2022-12-13T08:03:33;37.27;;;18.53;;
10293;SDS011;5192;50.328;7.610;2022-12-13T08:06:02;33.33;;;16.53;;
10293;SDS011;5192;50.328;7.610;2022-12-13T08:08:47;35.43;;;16.80;;
10293;SDS011;5192;50.328;7.610;2022-12-13T08:11:17;36.77;;;18.00;;
10293;SDS011;5192;50.328;7.610;2022-12-13T08:13:42;35.63;;;16.90;;
10293;SDS011;5192;50.328;7.610;2022-12-13T08:16:10;33.07;;;16.20;;
10293;SDS011;5192;50.328;7.610;2022-12-13T08:18:43;38.53;;;16.80;;
10293;SDS011;5192;50.328;7.610;2022-12-13T08:21:12;31.13;;;16.03;;
10293;SDS011;5192;50.328;7.610;2022-12-13T08:23:39;34.87;;;16.80;;
10293;SDS011;5192;50.328;7.610;2022-12-13T08:26:08;35.13;;;17.77;;
10293;SDS011;5192;50.328;7.610;2022-12-13T08:28:35;32.27;;;16.90;;
10293;SDS011;5192;50.328;7.610;2022-12-13T08:31:04;32.67;;;17.47;;
10293;SDS011;5192;50.328;7.610;2022-12-13T08:33:33;35.17;;;17.80;;
10293;SDS011;5192;50.328;7.610;2022-12-13T08:36:09;37.30;;;18.10;;
10293;SDS011;5192;50.328;7.610;2022-12-13T08:38:40;33.47;;;17.20;;
10293;SDS011;5192;50.328;7.610;2022-12-13T08:41:09;31.37;;;17.00;;
10293;SDS011;5192;50.328;7.610;2022-12-13T08:43:35;34.37;;;16.60;;
10293;SDS011;5192;50.328;7.610;2022-12-13T08:46:06;38.23;;;17.53;;
10293;SDS011;5192;50.328;7.610;2022-12-13T08:48:33;33.13;;;18.03;;
10293;SDS011;5192;50.328;7.610;2022-12-13T08:51:03;37.37;;;18.43;;
10293;SDS011;5192;50.328;7.610;2022-12-13T08:53:32;37.07;;;17.40;;
10293;SDS011;5192;50.328;7.610;2022-12-13T08:56:01;32.33;;;17.37;;
10293;SDS011;5192;50.328;7.610;2022-12-13T08:58:30;37.10;;;18.70;;
10293;SDS011;5192;50.328;7.610;2022-12-13T09:00:57;34.90;;;17.87;;
10293;SDS011;5192;50.328;7.610;2022-12-13T09:03:24;38.50;;;18.60;;
10293;SDS011;5192;50.328;7.610;2022-12-13T09:05:54;39.03;;;19.80;;
10293;SDS011;5192;50.328;7.610;2022-12-13T09:08:21;36.07;;;18.70;;
10293;SDS011;5192;50.328;7.610;2022-12-13T09:10:56;36.00;;;19.27;;
10293;SDS011;5192;50.328;7.610;2022-12-13T09:13:26;39.20;;;19.30;;
10293;SDS011;5192;50.328;7.610;2022-12-13T09:16:02;35.07;;;17.57;;
10293;SDS011;5192;50.328;7.610;2022-12-13T09:18:33;36.30;;;18.57;;
10293;SDS011;5192;50.328;7.610;2022-12-13T09:20:59;35.77;;;19.27;;
10293;SDS011;5192;50.328;7.610;2022-12-13T09:23:30;40.80;;;19.97;;
10293;SDS011;5192;50.328;7.610;2022-12-13T09:25:59;41.33;;;20.53;;
10293;SDS011;5192;50.328;7.610;2022-12-13T09:28:27;36.20;;;19.37;;
10293;SDS011;5192;50.328;7.610;2022-12-13T09:30:55;37.30;;;19.03;;
10293;SDS011;5192;50.328;7.610;2022-12-13T09:33:22;36.30;;;18.67;;
10293;SDS011;5192;50.328;7.610;2022-12-13T09:35:50;35.73;;;18.63;;
10293;SDS011;5192;50.328;7.610;2022-12-13T09:38:17;31.67;;;16.47;;
10293;SDS011;5192;50.328;7.610;2022-12-13T09:40:44;34.70;;;17.07;;
10293;SDS011;5192;50.328;7.610;2022-12-13T09:43:16;33.13;;;15.57;;
10293;SDS011;5192;50.328;7.610;2022-12-13T09:45:52;30.03;;;15.93;;
10293;SDS011;5192;50.328;7.610;2022-12-13T09:48:20;29.63;;;16.03;;
10293;SDS011;5192;50.328;7.610;2022-12-13T09:50:48;31.00;;;15.50;;
10293;SDS011;5192;50.328;7.610;2022-12-13T09:53:16;28.57;;;15.73;;
10293;SDS011;5192;50.328;7.610;2022-12-13T09:55:49;25.83;;;14.50;;
10293;SDS011;5192;50.328;7.610;2022-12-13T09:58:29;32.37;;;15.63;;
10293;SDS011;5192;50.328;7.610;2022-12-13T10:00:56;27.00;;;15.03;;
10293;SDS011;5192;50.328;7.610;2022-12-13T10:03:24;28.77;;;15.50;;
10293;SDS011;5192;50.328;7.610;2022-12-13T10:05:58;28.37;;;16.20;;
10293;SDS011;5192;50.328;7.610;2022-12-13T10:08:58;29.17;;;14.73;;
10293;SDS011;5192;50.328;7.610;2022-12-13T10:11:27;25.70;;;14.20;;
10293;SDS011;5192;50.328;7.610;2022-12-13T10:16:48;26.97;;;15.20;;
10293;SDS011;5192;50.328;7.610;2022-12-13T10:21:58;25.60;;;14.73;;
10293;SDS011;5192;50.328;7.610;2022-12-13T10:24:52;27.07;;;14.37;;
10293;SDS011;5192;50.328;7.610;2022-12-13T10:33:02;30.57;;;15.70;;
10293;SDS011;5192;50.328;7.610;2022-12-13T10:35:42;27.33;;;15.10;;
10293;SDS011;5192;50.328;7.610;2022-12-13T10:40:43;27.53;;;14.47;;
10293;SDS011;5192;50.328;7.610;2022-12-13T10:43:19;26.70;;;15.13;;
10293;SDS011;5192;50.328;7.610;2022-12-13T10:46:13;26.57;;;14.47;;
10293;SDS011;5192;50.328;7.610;2022-12-13T10:48:48;28.20;;;14.47;;
10293;SDS011;5192;50.328;7.610;2022-12-13T10:51:25;26.60;;;14.57;;
10293;SDS011;5192;50.328;7.610;2022-12-13T10:56:44;27.67;;;14.43;;
10293;SDS011;5192;50.328;7.610;2022-12-13T11:02:01;23.80;;;14.47;;
10293;SDS011;5192;50.328;7.610;2022-12-13T11:04:45;24.80;;;13.77;;
10293;SDS011;5192;50.328;7.610;2022-12-13T11:07:27;23.47;;;13.97;;
10293;SDS011;5192;50.328;7.610;2022-12-13T11:10:43;24.37;;;13.43;;
10293;SDS011;5192;50.328;7.610;2022-12-13T11:12:46;26.63;;;13.27;;
10293;SDS011;5192;50.328;7.610;2022-12-13T11:15:18;21.23;;;13.33;;
10293;SDS011;5192;50.328;7.610;2022-12-13T11:17:54;22.97;;;13.03;;
10293;SDS011;5192;50.328;7.610;2022-12-13T11:20:28;23.90;;;13.83;;
10293;SDS011;5192;50.328;7.610;2022-12-13T11:25:54;22.73;;;13.43;;
10293;SDS011;5192;50.328;7.610;2022-12-13T11:37:29;20.80;;;12.30;;
10293;SDS011;5192;50.328;7.610;2022-12-13T11:40:03;18.90;;;12.33;;
10293;SDS011;5192;50.328;7.610;2022-12-13T11:42:40;20.03;;;12.77;;
10293;SDS011;5192;50.328;7.610;2022-12-13T11:45:30;20.27;;;11.77;;
10293;SDS011;5192;50.328;7.610;2022-12-13T11:48:26;19.27;;;12.23;;
10293;SDS011;5192;50.328;7.610;2022-12-13T11:51:17;21.33;;;12.70;;
10293;SDS011;5192;50.328;7.610;2022-12-13T11:56:48;20.87;;;12.50;;
10293;SDS011;5192;50.328;7.610;2022-12-13T12:02:17;19.40;;;11.97;;
10293;SDS011;5192;50.328;7.610;2022-12-13T12:04:56;17.03;;;10.90;;
10293;SDS011;5192;50.328;7.610;2022-12-13T12:07:33;15.23;;;10.83;;
10293;SDS011;5192;50.328;7.610;2022-12-13T12:13:19;16.07;;;10.20;;
10293;SDS011;5192;50.328;7.610;2022-12-13T12:18:55;14.47;;;10.00;;
10293;SDS011;5192;50.328;7.610;2022-12-13T12:24:17;16.63;;;10.80;;
10293;SDS011;5192;50.328;7.610;2022-12-13T12:33:01;16.10;;;10.63;;
10293;SDS011;5192;50.328;7.610;2022-12-13T12:53:36;14.97;;;9.60;;
10293;SDS011;5192;50.328;7.610;2022-12-13T12:59:19;14.97;;;9.73;;
10293;SDS011;5192;50.328;7.610;2022-12-13T13:02:15;16.10;;;10.50;;
10293;SDS011;5192;50.328;7.610;2022-12-13T13:05:06;14.67;;;10.23;;
10293;SDS011;5192;50.328;7.610;2022-12-13T13:07:48;13.93;;;9.43;;
10293;SDS011;5192;50.328;7.610;2022-12-13T13:10:24;14.93;;;9.73;;
10293;SDS011;5192;50.328;7.610;2022-12-13T13:12:53;14.57;;;9.97;;
10293;SDS011;5192;50.328;7.610;2022-12-13T13:18:06;14.00;;;10.03;;
10293;SDS011;5192;50.328;7.610;2022-12-13T13:21:31;15.17;;;9.50;;
10293;SDS011;5192;50.328;7.610;2022-12-13T13:26:47;14.07;;;9.17;;
10293;SDS011;5192;50.328;7.610;2022-12-13T13:29:34;14.20;;;9.90;;
10293;SDS011;5192;50.328;7.610;2022-12-13T13:34:37;14.80;;;9.73;;
10293;SDS011;5192;50.328;7.610;2022-12-13T13:37:42;13.33;;;8.93;;
10293;SDS011;5192;50.328;7.610;2022-12-13T13:43:12;12.33;;;8.63;;
10293;SDS011;5192;50.328;7.610;2022-12-13T14:20:44;14.20;;;;;
10293;SDS011;5192;50.328;7.610;2022-12-13T14:28:54;15.53;;;8.70;;
10293;SDS011;5192;50.328;7.610;2022-12-13T14:31:34;13.67;;;8.80;;
10293;SDS011;5192;50.328;7.610;2022-12-13T14:34:06;12.37;;;8.67;;
10293;SDS011;5192;50.328;7.610;2022-12-13T14:40:01;14.60;;;9.23;;
10293;SDS011;5192;50.328;7.610;2022-12-13T14:42:50;16.03;;;8.97;;
10293;SDS011;5192;50.328;7.610;2022-12-13T14:45:27;16.17;;;9.37;;
10293;SDS011;5192;50.328;7.610;2022-12-13T14:48:03;15.43;;;9.73;;
10293;SDS011;5192;50.328;7.610;2022-12-13T14:50:40;15.23;;;10.17;;
10293;SDS011;5192;50.328;7.610;2022-12-13T14:56:04;15.97;;;10.10;;
10293;SDS011;5192;50.328;7.610;2022-12-13T14:59:02;14.40;;;9.77;;
10293;SDS011;5192;50.328;7.610;2022-12-13T15:04:24;17.30;;;10.17;;
10293;SDS011;5192;50.328;7.610;2022-12-13T15:16:24;18.53;;;9.50;;
10293;SDS011;5192;50.328;7.610;2022-12-13T15:19:05;17.87;;;10.23;;
10293;SDS011;5192;50.328;7.610;2022-12-13T15:21:54;18.57;;;10.33;;
10293;SDS011;5192;50.328;7.610;2022-12-13T15:24:38;16.93;;;9.93;;
10293;SDS011;5192;50.328;7.610;2022-12-13T15:27:15;17.50;;;11.13;;
10293;SDS011;5192;50.328;7.610;2022-12-13T15:29:43;15.17;;;9.50;;
10293;SDS011;5192;50.328;7.610;2022-12-13T15:32:13;16.87;;;9.27;;
10293;SDS011;5192;50.328;7.610;2022-12-13T15:34:48;16.80;;;9.17;;
10293;SDS011;5192;50.328;7.610;2022-12-13T15:37:19;16.40;;;9.70;;
10293;SDS011;5192;50.328;7.610;2022-12-13T15:40:00;16.50;;;9.73;;
10293;SDS011;5192;50.328;7.610;2022-12-13T15:42:34;16.10;;;9.57;;
10293;SDS011;5192;50.328;7.610;2022-12-13T15:45:05;18.30;;;9.23;;
10293;SDS011;5192;50.328;7.610;2022-12-13T15:47:44;17.67;;;9.90;;
10293;SDS011;5192;50.328;7.610;2022-12-13T15:53:04;19.20;;;9.80;;
10293;SDS011;5192;50.328;7.610;2022-12-13T15:55:50;15.70;;;11.80;;
10293;SDS011;5192;50.328;7.610;2022-12-13T15:58:33;19.67;;;9.90;;
10293;SDS011;5192;50.328;7.610;2022-12-13T16:01:01;15.47;;;10.03;;
10293;SDS011;5192;50.328;7.610;2022-12-13T16:06:17;17.57;;;9.50;;
10293;SDS011;5192;50.328;7.610;2022-12-13T16:08:49;15.07;;;8.80;;
10293;SDS011;5192;50.328;7.610;2022-12-13T16:11:24;16.27;;;9.97;;
10293;SDS011;5192;50.328;7.610;2022-12-13T16:17:13;17.77;;;10.13;;
10293;SDS011;5192;50.328;7.610;2022-12-13T16:19:43;16.87;;;9.07;;
10293;SDS011;5192;50.328;7.610;2022-12-13T16:22:13;14.17;;;8.93;;
10293;SDS011;5192;50.328;7.610;2022-12-13T16:24:39;14.37;;;8.40;;
10293;SDS011;5192;50.328;7.610;2022-12-13T16:27:07;14.87;;;9.50;;
10293;SDS011;5192;50.328;7.610;2022-12-13T16:29:36;15.20;;;9.60;;
10293;SDS011;5192;50.328;7.610;2022-12-13T16:32:02;13.93;;;8.83;;
10293;SDS011;5192;50.328;7.610;2022-12-13T16:34:32;15.37;;;8.63;;
10293;SDS011;5192;50.328;7.610;2022-12-13T16:36:58;16.73;;;9.43;;
10293;SDS011;5192;50.328;7.610;2022-12-13T16:39:25;14.60;;;8.33;;
10293;SDS011;5192;50.328;7.610;2022-12-13T16:41:53;16.23;;;8.77;;
10293;SDS011;5192;50.328;7.610;2022-12-13T16:44:38;15.13;;;8.80;;
10293;SDS011;5192;50.328;7.610;2022-12-13T16:47:06;12.57;;;8.27;;
10293;SDS011;5192;50.328;7.610;2022-12-13T16:49:36;15.33;;;8.20;;
10293;SDS011;5192;50.328;7.610;2022-12-13T16:52:02;14.27;;;8.57;;
10293;SDS011;5192;50.328;7.610;2022-12-13T16:54:31;14.30;;;9.27;;
10293;SDS011;5192;50.328;7.610;2022-12-13T16:56:57;16.53;;;8.90;;
10293;SDS011;5192;50.328;7.610;2022-12-13T16:59:25;12.80;;;7.67;;
10293;SDS011;5192;50.328;7.610;2022-12-13T17:01:52;12.77;;;7.97;;
10293;SDS011;5192;50.328;7.610;2022-12-13T17:04:21;14.77;;;8.10;;
10293;SDS011;5192;50.328;7.610;2022-12-13T17:06:49;15.97;;;8.33;;
10293;SDS011;5192;50.328;7.610;2022-12-13T17:09:19;12.67;;;8.37;;
10293;SDS011;5192;50.328;7.610;2022-12-13T17:11:47;12.83;;;7.90;;
10293;SDS011;5192;50.328;7.610;2022-12-13T17:14:14;16.27;;;8.90;;
10293;SDS011;5192;50.328;7.610;2022-12-13T17:16:39;18.97;;;9.47;;
10293;SDS011;5192;50.328;7.610;2022-12-13T17:19:10;13.80;;;7.53;;
10293;SDS011;5192;50.328;7.610;2022-12-13T17:21:36;16.67;;;10.13;;
10293;SDS011;5192;50.328;7.610;2022-12-13T17:24:03;10.73;;;7.70;;
10293;SDS011;5192;50.328;7.610;2022-12-13T17:26:30;15.43;;;8.93;;
10293;SDS011;5192;50.328;7.610;2022-12-13T17:28:57;13.40;;;8.30;;
10293;SDS011;5192;50.328;7.610;2022-12-13T17:31:25;13.17;;;8.40;;
10293;SDS011;5192;50.328;7.610;2022-12-13T17:33:55;14.97;;;8.17;;
10293;SDS011;5192;50.328;7.610;2022-12-13T17:36:21;15.20;;;8.50;;
10293;SDS011;5192;50.328;7.610;2022-12-13T17:38:48;13.20;;;8.40;;
10293;SDS011;5192;50.328;7.610;2022-12-13T17:41:15;12.67;;;8.33;;
10293;SDS011;5192;50.328;7.610;2022-12-13T17:43:43;15.70;;;8.93;;
10293;SDS011;5192;50.328;7.610;2022-12-13T17:46:12;13.67;;;7.90;;
10293;SDS011;5192;50.328;7.610;2022-12-13T17:48:41;14.00;;;8.67;;
10293;SDS011;5192;50.328;7.610;2022-12-13T17:51:11;14.47;;;8.73;;
10293;SDS011;5192;50.328;7.610;2022-12-13T17:53:39;16.23;;;9.33;;
10293;SDS011;5192;50.328;7.610;2022-12-13T17:56:07;15.67;;;8.60;;
10293;SDS011;5192;50.328;7.610;2022-12-13T17:58:37;15.83;;;8.70;;
10293;SDS011;5192;50.328;7.610;2022-12-13T18:01:18;14.30;;;8.90;;
10293;SDS011;5192;50.328;7.610;2022-12-13T18:03:50;14.83;;;9.03;;
10293;SDS011;5192;50.328;7.610;2022-12-13T18:06:28;13.07;;;8.60;;
10293;SDS011;5192;50.328;7.610;2022-12-13T18:08:57;14.00;;;8.73;;
10293;SDS011;5192;50.328;7.610;2022-12-13T18:11:24;15.37;;;9.57;;
10293;SDS011;5192;50.328;7.610;2022-12-13T18:13:51;17.97;;;10.13;;
10293;SDS011;5192;50.328;7.610;2022-12-13T18:16:19;14.90;;;8.93;;